createdAt,value
2016-01-03T00:00:04.607Z,99.99
2016-01-03T00:00:16.951Z,99.87
2016-01-03T00:00:29.357Z,99.97
2016-01-03T00:00:41.750Z,99.97
2016-01-03T00:00:54.125Z,99.99
2016-01-03T00:01:06.500Z,99.99
2016-01-03T00:01:18.875Z,99.99
2016-01-03T00:01:31.110Z,99.5
2016-01-03T00:01:43.035Z,99.99
2016-01-03T00:01:55.378Z,99.68
2016-01-03T00:02:07.816Z,99.78
2016-01-03T00:02:20.241Z,99.68
2016-01-03T00:02:32.647Z,99.78
2016-01-03T00:02:45.024Z,99.78
2016-01-03T00:02:57.383Z,99.99
2016-01-03T00:03:09.743Z,99.78
2016-01-03T00:03:22.102Z,99.78
2016-01-03T00:03:34.461Z,99.78
2016-01-03T00:03:46.808Z,99.68
2016-01-03T00:03:59.168Z,99.78
2016-01-03T00:04:11.543Z,99.59
2016-01-03T00:04:23.886Z,99.78
2016-01-03T00:04:36.261Z,99.78
2016-01-03T00:04:48.608Z,99.68
2016-01-03T00:05:00.967Z,99.78
2016-01-03T00:05:13.311Z,99.78
2016-01-03T00:05:25.655Z,99.78
2016-01-03T00:05:38.014Z,99.78
2016-01-03T00:05:50.377Z,99.78
2016-01-03T00:06:02.752Z,99.78
2016-01-03T00:06:14.970Z,99.99
2016-01-03T00:06:27.377Z,99.99
2016-01-03T00:06:39.767Z,99.68
2016-01-03T00:06:52.177Z,99.99
2016-01-03T00:07:04.552Z,99.97
2016-01-03T00:07:16.958Z,99.97
2016-01-03T00:07:29.348Z,99.99
2016-01-03T00:07:41.755Z,99.97
2016-01-03T00:07:54.163Z,99.97
2016-01-03T00:08:06.522Z,99.97
2016-01-03T00:08:18.882Z,99.59
2016-01-03T00:08:31.241Z,99.97
2016-01-03T00:08:43.600Z,99.97
2016-01-03T00:08:55.947Z,99.99
2016-01-03T00:09:08.307Z,99.59
2016-01-03T00:09:20.682Z,99.59
2016-01-03T00:09:33.041Z,99.97
2016-01-03T00:09:45.419Z,99.87
2016-01-03T00:09:57.763Z,99.99
2016-01-03T00:10:10.122Z,99.99
2016-01-03T00:10:22.481Z,99.99
2016-01-03T00:10:34.825Z,99.99
2016-01-03T00:10:47.202Z,99.99
2016-01-03T00:10:59.577Z,99.99
2016-01-03T00:11:11.952Z,99.68
2016-01-03T00:11:24.327Z,99.87
2016-01-03T00:11:36.702Z,99.99
2016-01-03T00:11:49.080Z,99.99
2016-01-03T00:12:01.471Z,99.97
2016-01-03T00:12:13.861Z,99.68
2016-01-03T00:12:26.252Z,99.68
2016-01-03T00:12:38.658Z,99.5
2016-01-03T00:12:51.052Z,99.59
2016-01-03T00:13:03.443Z,99.78
2016-01-03T00:13:15.786Z,99.78
2016-01-03T00:13:28.161Z,99.59
2016-01-03T00:13:40.505Z,99.68
2016-01-03T00:13:52.883Z,99.68
2016-01-03T00:14:05.242Z,99.31
2016-01-03T00:14:16.883Z,99.4
2016-01-03T00:14:28.524Z,99.5
2016-01-03T00:14:40.914Z,99.68
2016-01-03T00:14:53.261Z,99.4
2016-01-03T00:15:05.620Z,99.59
2016-01-03T00:15:17.964Z,99.59
2016-01-03T00:15:30.324Z,99.21
2016-01-03T00:15:42.667Z,99.21
2016-01-03T00:15:55.029Z,99.12
2016-01-03T00:16:07.404Z,99.21
2016-01-03T00:16:19.779Z,99.4
2016-01-03T00:16:32.341Z,99.21
2016-01-03T00:16:44.732Z,99.21
2016-01-03T00:16:57.110Z,99.12
2016-01-03T00:17:09.500Z,99.21
2016-01-03T00:17:21.875Z,99.21
2016-01-03T00:17:34.282Z,99.21
2016-01-03T00:17:46.657Z,99.12
2016-01-03T00:17:59.082Z,99.4
2016-01-03T00:18:11.425Z,99.21
2016-01-03T00:18:23.785Z,99.21
2016-01-03T00:18:36.144Z,99.31
2016-01-03T00:18:48.519Z,99.21
2016-01-03T00:19:00.880Z,99.59
2016-01-03T00:19:13.255Z,99.4
2016-01-03T00:19:25.630Z,99.5
2016-01-03T00:19:38.005Z,99.12
2016-01-03T00:19:50.365Z,99.31
2016-01-03T00:20:02.758Z,99.59
2016-01-03T00:20:15.149Z,99.78
2016-01-03T00:20:27.540Z,99.78
2016-01-03T00:20:39.930Z,99.78
2016-01-03T00:20:52.305Z,99.68
2016-01-03T00:21:04.011Z,99.78
2016-01-03T00:21:16.355Z,99.59
2016-01-03T00:21:28.715Z,99.68
2016-01-03T00:21:41.074Z,99.59
2016-01-03T00:21:53.433Z,99.68
2016-01-03T00:22:05.811Z,99.59
2016-01-03T00:22:18.171Z,99.59
2016-01-03T00:22:30.530Z,99.68
2016-01-03T00:22:42.889Z,99.78
2016-01-03T00:22:55.264Z,99.59
2016-01-03T00:23:07.627Z,99.68
2016-01-03T00:23:19.986Z,99.78
2016-01-03T00:23:32.346Z,99.68
2016-01-03T00:23:44.689Z,99.5
2016-01-03T00:23:57.064Z,99.68
2016-01-03T00:24:09.441Z,99.68
2016-01-03T00:24:21.816Z,99.68
2016-01-03T00:24:34.191Z,99.68
2016-01-03T00:24:46.566Z,99.5
2016-01-03T00:24:58.957Z,99.5
2016-01-03T00:25:11.366Z,99.5
2016-01-03T00:25:23.741Z,99.5
2016-01-03T00:25:36.132Z,99.68
2016-01-03T00:25:48.538Z,99.4
2016-01-03T00:26:00.897Z,99.59
2016-01-03T00:26:13.260Z,99.4
2016-01-03T00:26:25.619Z,99.5
2016-01-03T00:26:37.979Z,99.87
2016-01-03T00:26:50.338Z,99.78
2016-01-03T00:27:02.697Z,99.5
2016-01-03T00:27:15.060Z,99.5
2016-01-03T00:27:27.450Z,99.5
2016-01-03T00:27:39.810Z,99.4
2016-01-03T00:27:52.153Z,99.5
2016-01-03T00:28:04.513Z,99.5
2016-01-03T00:28:16.874Z,99.5
2016-01-03T00:28:29.234Z,99.5
2016-01-03T00:28:41.593Z,99.68
2016-01-03T00:28:53.952Z,99.5
2016-01-03T00:29:06.327Z,99.5
2016-01-03T00:29:18.705Z,99.78
2016-01-03T00:29:31.080Z,99.68
2016-01-03T00:29:43.455Z,99.78
2016-01-03T00:29:55.846Z,99.78
2016-01-03T00:30:08.237Z,99.87
2016-01-03T00:30:20.646Z,99.68
2016-01-03T00:30:33.005Z,99.78
2016-01-03T00:30:44.646Z,99.68
2016-01-03T00:30:57.005Z,99.59
2016-01-03T00:31:09.365Z,99.59
2016-01-03T00:31:21.727Z,99.68
2016-01-03T00:31:34.102Z,99.68
2016-01-03T00:31:46.446Z,99.5
2016-01-03T00:31:58.821Z,99.68
2016-01-03T00:32:11.180Z,99.68
2016-01-03T00:32:23.541Z,99.4
2016-01-03T00:32:35.182Z,99.68
2016-01-03T00:32:47.541Z,99.78
2016-01-03T00:32:59.916Z,99.68
2016-01-03T00:33:12.291Z,99.5
2016-01-03T00:33:24.654Z,99.68
2016-01-03T00:33:37.013Z,99.68
2016-01-03T00:33:49.388Z,99.68
2016-01-03T00:34:01.794Z,99.78
2016-01-03T00:34:14.169Z,99.78
2016-01-03T00:34:26.563Z,99.78
2016-01-03T00:34:38.954Z,99.78
2016-01-03T00:34:51.329Z,99.4
2016-01-03T00:35:03.735Z,99.68
2016-01-03T00:35:16.126Z,99.59
2016-01-03T00:35:28.488Z,99.59
2016-01-03T00:35:40.832Z,99.4
2016-01-03T00:35:53.175Z,99.4
2016-01-03T00:36:05.519Z,99.4
2016-01-03T00:36:17.879Z,99.21
2016-01-03T00:36:30.224Z,99.12
2016-01-03T00:36:42.584Z,99.21
2016-01-03T00:36:54.943Z,99.31
2016-01-03T00:37:07.318Z,99.31
2016-01-03T00:37:19.677Z,99.21
2016-01-03T00:37:32.055Z,99.4
2016-01-03T00:37:44.399Z,99.21
2016-01-03T00:37:56.759Z,99.21
2016-01-03T00:38:09.149Z,99.21
2016-01-03T00:38:21.509Z,98.93
2016-01-03T00:38:33.887Z,98.93
2016-01-03T00:38:46.262Z,99.31
2016-01-03T00:38:58.652Z,99.31
2016-01-03T00:39:11.043Z,99.31
2016-01-03T00:39:23.418Z,99.68
2016-01-03T00:39:35.811Z,98.93
2016-01-03T00:39:48.218Z,99.59
2016-01-03T00:40:00.608Z,99.78
2016-01-03T00:40:12.999Z,99.59
2016-01-03T00:40:25.358Z,99.78
2016-01-03T00:40:37.721Z,99.78
2016-01-03T00:40:50.064Z,99.31
2016-01-03T00:41:02.439Z,99.59
2016-01-03T00:41:14.783Z,99.78
2016-01-03T00:41:27.143Z,99.4
2016-01-03T00:41:39.520Z,99.59
2016-01-03T00:41:51.879Z,99.4
2016-01-03T00:42:04.238Z,99.59
2016-01-03T00:42:16.613Z,99.68
2016-01-03T00:42:28.973Z,99.68
2016-01-03T00:42:41.335Z,99.4
2016-01-03T00:42:53.710Z,99.5
2016-01-03T00:43:06.085Z,99.31
2016-01-03T00:43:18.460Z,99.31
2016-01-03T00:43:30.835Z,99.31
2016-01-03T00:43:43.213Z,98.93
2016-01-03T00:43:55.588Z,99.31
2016-01-03T00:44:07.979Z,99.21
2016-01-03T00:44:20.369Z,99.4
2016-01-03T00:44:32.057Z,99.02
2016-01-03T00:44:44.434Z,99.31
2016-01-03T00:44:56.824Z,99.31
2016-01-03T00:45:09.199Z,99.4
2016-01-03T00:45:21.606Z,99.31
2016-01-03T00:45:33.965Z,99.31
2016-01-03T00:45:46.327Z,99.4
2016-01-03T00:45:58.671Z,99.21
2016-01-03T00:46:11.031Z,99.31
2016-01-03T00:46:23.390Z,99.31
2016-01-03T00:46:35.765Z,99.5
2016-01-03T00:46:48.112Z,99.21
2016-01-03T00:47:00.471Z,99.31
2016-01-03T00:47:12.830Z,99.4
2016-01-03T00:47:25.205Z,99.31
2016-01-03T00:47:37.565Z,99.02
2016-01-03T00:47:49.926Z,99.21
2016-01-03T00:48:02.286Z,99.31
2016-01-03T00:48:14.645Z,99.4
2016-01-03T00:48:27.004Z,99.02
2016-01-03T00:48:39.379Z,99.21
2016-01-03T00:48:51.757Z,99.59
2016-01-03T00:49:04.132Z,99.68
2016-01-03T00:49:16.523Z,99.78
2016-01-03T00:49:28.914Z,99.78
2016-01-03T00:49:41.304Z,99.5
2016-01-03T00:49:53.698Z,99.97
2016-01-03T00:50:06.104Z,99.59
2016-01-03T00:50:18.495Z,99.97
2016-01-03T00:50:30.870Z,99.97
2016-01-03T00:50:43.260Z,99.59
2016-01-03T00:50:55.623Z,99.78
2016-01-03T00:51:07.982Z,99.78
2016-01-03T00:51:20.341Z,99.78
2016-01-03T00:51:32.685Z,99.87
2016-01-03T00:51:45.060Z,99.87
2016-01-03T00:51:57.423Z,99.68
2016-01-03T00:52:09.782Z,99.59
2016-01-03T00:52:22.126Z,99.31
2016-01-03T00:52:34.501Z,99.59
2016-01-03T00:52:46.860Z,99.59
2016-01-03T00:52:59.222Z,99.5
2016-01-03T00:53:11.566Z,99.4
2016-01-03T00:53:23.926Z,99.59
2016-01-03T00:53:36.285Z,99.97
2016-01-03T00:53:48.660Z,99.4
2016-01-03T00:54:01.038Z,99.59
2016-01-03T00:54:13.397Z,99.68
2016-01-03T00:54:25.772Z,99.4
2016-01-03T00:54:38.179Z,99.4
2016-01-03T00:54:50.554Z,99.97
2016-01-03T00:55:02.946Z,99.4
2016-01-03T00:55:15.337Z,99.68
2016-01-03T00:55:27.743Z,99.99
2016-01-03T00:55:40.134Z,99.97
2016-01-03T00:55:52.509Z,99.97
2016-01-03T00:56:04.887Z,99.97
2016-01-03T00:56:17.246Z,99.97
2016-01-03T00:56:29.590Z,99.31
2016-01-03T00:56:41.949Z,99.87
2016-01-03T00:56:54.324Z,99.87
2016-01-03T00:57:06.717Z,99.68
2016-01-03T00:57:19.092Z,99.78
2016-01-03T00:57:31.451Z,99.68
2016-01-03T00:57:43.811Z,99.78
2016-01-03T00:57:56.154Z,99.99
2016-01-03T00:58:08.517Z,99.78
2016-01-03T00:58:20.876Z,99.99
2016-01-03T00:58:33.235Z,99.31
2016-01-03T00:58:45.626Z,99.68
2016-01-03T00:58:57.985Z,99.99
2016-01-03T00:59:10.363Z,99.99
2016-01-03T00:59:22.738Z,99.97
2016-01-03T00:59:35.098Z,99.99
2016-01-03T00:59:47.488Z,99.97
2016-01-03T00:59:59.879Z,99.99
2016-01-03T01:00:12.273Z,99.97
2016-01-03T01:00:24.663Z,99.59
2016-01-03T01:00:37.054Z,99.5
2016-01-03T01:00:49.460Z,99.4
2016-01-03T01:01:01.679Z,99.68
2016-01-03T01:01:14.041Z,99.5
2016-01-03T01:01:26.276Z,99.4
2016-01-03T01:01:38.635Z,99.87
2016-01-03T01:01:50.994Z,99.5
2016-01-03T01:02:02.635Z,99.68
2016-01-03T01:02:14.997Z,99.5
2016-01-03T01:02:27.341Z,99.68
2016-01-03T01:02:39.716Z,99.87
2016-01-03T01:02:52.076Z,99.87
2016-01-03T01:03:04.435Z,99.78
2016-01-03T01:03:16.781Z,99.5
2016-01-03T01:03:29.140Z,99.4
2016-01-03T01:03:41.515Z,99.59
2016-01-03T01:03:53.890Z,99.59
2016-01-03T01:04:06.249Z,99.59
2016-01-03T01:04:18.627Z,99.02
2016-01-03T01:04:31.018Z,99.21
2016-01-03T01:04:43.409Z,99.21
2016-01-03T01:04:55.799Z,99.4
2016-01-03T01:05:08.190Z,99.21
2016-01-03T01:05:20.598Z,99.31
2016-01-03T01:05:32.989Z,99.59
2016-01-03T01:05:45.379Z,99.02
2016-01-03T01:05:57.786Z,99.21
2016-01-03T01:06:10.149Z,99.21
2016-01-03T01:06:22.493Z,99.4
2016-01-03T01:06:34.852Z,99.31
2016-01-03T01:06:47.212Z,99.31
2016-01-03T01:06:59.571Z,99.02
2016-01-03T01:07:11.917Z,99.21
2016-01-03T01:07:23.557Z,99.21
2016-01-03T01:07:35.901Z,99.59
2016-01-03T01:07:48.260Z,99.31
2016-01-03T01:08:00.620Z,99.59
2016-01-03T01:08:12.981Z,99.4
2016-01-03T01:08:25.341Z,99.4
2016-01-03T01:08:37.700Z,99.78
2016-01-03T01:08:50.075Z,99.59
2016-01-03T01:09:02.434Z,99.78
2016-01-03T01:09:14.812Z,99.78
2016-01-03T01:09:27.187Z,99.68
2016-01-03T01:09:39.578Z,99.78
2016-01-03T01:09:51.969Z,99.78
2016-01-03T01:10:04.344Z,99.68
2016-01-03T01:10:16.738Z,99.4
2016-01-03T01:10:29.144Z,99.5
2016-01-03T01:10:41.535Z,99.5
2016-01-03T01:10:53.879Z,99.5
2016-01-03T01:11:06.238Z,99.5
2016-01-03T01:11:18.600Z,99.5
2016-01-03T01:11:30.959Z,99.5
2016-01-03T01:11:43.318Z,99.5
2016-01-03T01:11:55.678Z,99.78
2016-01-03T01:12:08.037Z,99.97
2016-01-03T01:12:20.398Z,99.97
2016-01-03T01:12:32.758Z,99.97
2016-01-03T01:12:45.117Z,99.97
2016-01-03T01:12:57.492Z,99.97
2016-01-03T01:13:09.852Z,99.97
2016-01-03T01:13:22.214Z,99.99
2016-01-03T01:13:34.589Z,99.99
2016-01-03T01:13:46.964Z,99.5
2016-01-03T01:13:58.620Z,99.59
2016-01-03T01:14:10.995Z,99.99
2016-01-03T01:14:23.390Z,99.99
2016-01-03T01:14:35.077Z,99.97
2016-01-03T01:14:47.468Z,99.97
2016-01-03T01:14:59.859Z,99.4
2016-01-03T01:15:12.249Z,99.59
2016-01-03T01:15:24.642Z,99.4
2016-01-03T01:15:37.064Z,99.5
2016-01-03T01:15:49.407Z,99.5
2016-01-03T01:16:01.767Z,99.87
2016-01-03T01:16:14.126Z,99.68
2016-01-03T01:16:26.489Z,99.4
2016-01-03T01:16:38.848Z,99.5
2016-01-03T01:16:51.207Z,99.5
2016-01-03T01:17:03.567Z,99.5
2016-01-03T01:17:15.926Z,99.5
2016-01-03T01:17:28.303Z,99.97
2016-01-03T01:17:40.647Z,99.68
2016-01-03T01:17:53.006Z,99.4
2016-01-03T01:18:05.366Z,99.4
2016-01-03T01:18:17.709Z,99.5
2016-01-03T01:18:30.087Z,99.5
2016-01-03T01:18:42.478Z,99.5
2016-01-03T01:18:54.837Z,99.5
2016-01-03T01:19:07.212Z,99.68
2016-01-03T01:19:19.587Z,99.68
2016-01-03T01:19:31.981Z,99.68
2016-01-03T01:19:44.372Z,99.87
2016-01-03T01:19:56.809Z,99.68
2016-01-03T01:20:08.497Z,99.59
2016-01-03T01:20:20.903Z,99.68
2016-01-03T01:20:33.264Z,99.4
2016-01-03T01:20:45.624Z,99.68
2016-01-03T01:20:57.983Z,99.5
2016-01-03T01:21:10.342Z,98.93
2016-01-03T01:21:22.702Z,99.31
2016-01-03T01:21:35.065Z,99.31
2016-01-03T01:22:19.971Z,99.31
2016-01-03T01:22:32.333Z,99.4
2016-01-03T01:22:44.692Z,99.21
2016-01-03T01:22:57.051Z,99.21
2016-01-03T01:23:11.630Z,99.21
2016-01-03T01:23:23.286Z,99.21
2016-01-03T01:23:35.663Z,99.02
2016-01-03T01:23:48.038Z,99.02
2016-01-03T01:24:00.413Z,99.4
2016-01-03T01:24:12.788Z,99.4
2016-01-03T01:24:25.178Z,99.5
2016-01-03T01:24:37.557Z,99.31
2016-01-03T01:24:49.948Z,99.5
2016-01-03T01:25:02.354Z,99.4
2016-01-03T01:25:14.729Z,99.59
2016-01-03T01:25:27.151Z,99.31
2016-01-03T01:25:39.544Z,99.31
2016-01-03T01:25:51.903Z,98.93
2016-01-03T01:26:04.247Z,99.4
2016-01-03T01:26:16.606Z,99.12
2016-01-03T01:26:28.966Z,99.31
2016-01-03T01:26:41.344Z,99.12
2016-01-03T01:26:53.703Z,99.12
2016-01-03T01:27:06.062Z,99.12
2016-01-03T01:27:18.422Z,99.12
2016-01-03T01:27:30.797Z,99.21
2016-01-03T01:27:43.144Z,99.12
2016-01-03T01:27:55.503Z,99.12
2016-01-03T01:28:07.862Z,99.21
2016-01-03T01:28:20.237Z,99.21
2016-01-03T01:28:32.612Z,99.12
2016-01-03T01:28:44.990Z,99.21
2016-01-03T01:28:57.365Z,99.21
2016-01-03T01:29:09.818Z,99.12
2016-01-03T01:29:22.193Z,99.12
2016-01-03T01:29:34.584Z,99.02
2016-01-03T01:29:46.978Z,99.21
2016-01-03T01:29:59.384Z,99.4
2016-01-03T01:30:11.775Z,99.12
2016-01-03T01:30:23.462Z,99.31
2016-01-03T01:30:35.134Z,99.12
2016-01-03T01:30:47.495Z,99.12
2016-01-03T01:30:59.855Z,99.12
2016-01-03T01:31:12.214Z,99.12
2016-01-03T01:31:24.573Z,99.4
2016-01-03T01:31:36.933Z,99.4
2016-01-03T01:31:49.295Z,99.12
2016-01-03T01:32:01.655Z,99.31
2016-01-03T01:32:14.014Z,99.02
2016-01-03T01:32:26.389Z,99.31
2016-01-03T01:32:38.750Z,99.4
2016-01-03T01:32:51.125Z,99.02
2016-01-03T01:33:03.485Z,99.12
2016-01-03T01:33:15.860Z,99.02
2016-01-03T01:33:28.235Z,99.12
2016-01-03T01:33:40.613Z,99.59
2016-01-03T01:33:53.003Z,99.31
2016-01-03T01:34:05.378Z,99.4
2016-01-03T01:34:17.769Z,99.5
2016-01-03T01:34:30.144Z,99.4
2016-01-03T01:34:42.538Z,99.5
2016-01-03T01:34:54.944Z,99.4
2016-01-03T01:35:07.334Z,99.5
2016-01-03T01:35:19.725Z,99.5
2016-01-03T01:35:32.131Z,99.59
2016-01-03T01:35:44.493Z,99.31
2016-01-03T01:35:56.852Z,99.02
2016-01-03T01:36:09.211Z,99.21
2016-01-03T01:36:21.555Z,99.12
2016-01-03T01:36:33.915Z,99.21
2016-01-03T01:36:46.277Z,99.12
2016-01-03T01:36:58.652Z,99.21
2016-01-03T01:37:11.011Z,99.21
2016-01-03T01:37:23.355Z,99.21
2016-01-03T01:37:35.714Z,99.21
2016-01-03T01:37:48.077Z,99.21
2016-01-03T01:38:00.421Z,99.21
2016-01-03T01:38:12.764Z,99.21
2016-01-03T01:38:25.124Z,99.21
2016-01-03T01:38:37.499Z,99.02
2016-01-03T01:38:49.877Z,99.02
2016-01-03T01:39:02.252Z,99.12
2016-01-03T01:39:14.627Z,99.4
2016-01-03T01:39:27.017Z,99.31
2016-01-03T01:39:39.424Z,99.12
2016-01-03T01:39:51.816Z,99.31
2016-01-03T01:40:04.191Z,99.4
2016-01-03T01:40:16.597Z,99.5
2016-01-03T01:40:28.972Z,99.4
2016-01-03T01:40:41.394Z,99.5
2016-01-03T01:40:53.054Z,99.4
2016-01-03T01:41:05.397Z,99.5
2016-01-03T01:41:17.757Z,99.4
2016-01-03T01:41:30.116Z,99.5
2016-01-03T01:41:42.475Z,99.31
2016-01-03T01:41:54.838Z,99.4
2016-01-03T01:42:07.197Z,99.5
2016-01-03T01:42:19.572Z,99.4
2016-01-03T01:42:31.916Z,99.4
2016-01-03T01:42:44.275Z,99.31
2016-01-03T01:42:56.638Z,99.21
2016-01-03T01:43:08.997Z,99.31
2016-01-03T01:43:21.356Z,99.31
2016-01-03T01:43:33.716Z,99.4
2016-01-03T01:43:46.091Z,99.4
2016-01-03T01:43:58.313Z,99.4
2016-01-03T01:44:10.672Z,99.4
2016-01-03T01:44:23.047Z,99.4
2016-01-03T01:44:35.422Z,99.4
2016-01-03T01:44:47.813Z,99.31
2016-01-03T01:45:00.221Z,99.5
2016-01-03T01:45:12.580Z,99.31
2016-01-03T01:45:25.002Z,99.31
2016-01-03T01:45:37.377Z,99.21
2016-01-03T01:45:49.752Z,99.21
2016-01-03T01:46:02.114Z,99.31
2016-01-03T01:46:14.474Z,99.31
2016-01-03T01:46:26.833Z,99.21
2016-01-03T01:46:39.193Z,99.59
2016-01-03T01:46:51.568Z,99.21
2016-01-03T01:47:03.774Z,99.21
2016-01-03T01:47:16.133Z,99.21
2016-01-03T01:47:28.492Z,99.31
2016-01-03T01:47:40.852Z,99.31
2016-01-03T01:47:53.227Z,99.4
2016-01-03T01:48:05.605Z,99.31
2016-01-03T01:48:17.964Z,99.31
2016-01-03T01:48:30.339Z,99.4
2016-01-03T01:48:42.730Z,99.4
2016-01-03T01:48:55.120Z,99.31
2016-01-03T01:49:06.794Z,99.4
2016-01-03T01:49:19.232Z,99.31
2016-01-03T01:49:31.622Z,99.5
2016-01-03T01:49:43.997Z,99.5
2016-01-03T01:49:56.341Z,99.02
2016-01-03T01:50:08.704Z,99.59
2016-01-03T01:50:21.047Z,99.02
2016-01-03T01:50:33.422Z,99.02
2016-01-03T01:50:45.766Z,99.12
2016-01-03T01:50:58.125Z,99.02
2016-01-03T01:51:10.488Z,99.21
2016-01-03T01:51:22.847Z,99.21
2016-01-03T01:51:35.222Z,99.21
2016-01-03T01:51:47.582Z,99.21
2016-01-03T01:51:59.957Z,99.21
2016-01-03T01:52:12.319Z,99.21
2016-01-03T01:52:24.678Z,99.21
2016-01-03T01:52:36.897Z,99.31
2016-01-03T01:52:49.272Z,99.4
2016-01-03T01:53:01.647Z,99.5
2016-01-03T01:53:14.041Z,99.21
2016-01-03T01:53:26.416Z,99.4
2016-01-03T01:53:38.806Z,98.93
2016-01-03T01:53:51.197Z,99.4
2016-01-03T01:54:03.588Z,99.21
2016-01-03T01:54:15.981Z,99.4
2016-01-03T01:54:28.356Z,99.78
2016-01-03T01:54:40.716Z,99.59
2016-01-03T01:54:53.075Z,99.78
2016-01-03T01:55:05.434Z,99.87
2016-01-03T01:55:17.796Z,99.5
2016-01-03T01:55:30.139Z,99.5
2016-01-03T01:55:42.499Z,99.5
2016-01-03T01:55:54.858Z,99.4
2016-01-03T01:56:07.233Z,99.97
2016-01-03T01:56:19.611Z,99.4
2016-01-03T01:56:31.971Z,99.59
2016-01-03T01:56:44.346Z,99.99
2016-01-03T01:56:56.002Z,99.99
2016-01-03T01:57:08.392Z,99.59
2016-01-03T01:57:20.786Z,99.78
2016-01-03T01:57:33.177Z,99.97
2016-01-03T01:57:45.567Z,99.68
2016-01-03T01:57:57.974Z,99.68
2016-01-03T01:58:10.317Z,99.59
2016-01-03T01:58:22.680Z,99.68
2016-01-03T01:58:34.320Z,99.78
2016-01-03T01:58:46.695Z,99.99
2016-01-03T01:58:59.055Z,99.99
2016-01-03T01:59:11.414Z,99.99
2016-01-03T01:59:23.775Z,99.68
2016-01-03T01:59:36.135Z,99.99
2016-01-03T01:59:48.338Z,99.78
2016-01-03T02:00:00.697Z,99.97
2016-01-03T02:00:13.057Z,99.31
2016-01-03T02:00:25.419Z,99.99
2016-01-03T02:00:37.778Z,99.97
2016-01-03T02:00:50.153Z,99.4
2016-01-03T02:01:02.528Z,99.5
2016-01-03T02:01:14.903Z,99.68
2016-01-03T02:01:27.280Z,99.78
2016-01-03T02:01:39.678Z,99.59
2016-01-03T02:01:52.069Z,99.68
2016-01-03T02:02:04.459Z,99.68
2016-01-03T02:02:16.865Z,99.31
2016-01-03T02:02:29.243Z,99.31
2016-01-03T02:02:41.634Z,99.21
2016-01-03T02:02:54.009Z,99.21
2016-01-03T02:03:06.400Z,99.21
2016-01-03T02:03:18.790Z,99.21
2016-01-03T02:03:31.153Z,99.21
2016-01-03T02:03:43.496Z,99.21
2016-01-03T02:03:55.856Z,99.02
2016-01-03T02:04:08.215Z,99.12
2016-01-03T02:04:20.590Z,99.4
2016-01-03T02:04:32.953Z,99.4
2016-01-03T02:04:45.312Z,99.4
2016-01-03T02:04:57.656Z,99.02
2016-01-03T02:05:10.031Z,99.59
2016-01-03T02:05:22.390Z,99.5
2016-01-03T02:05:34.752Z,99.31
2016-01-03T02:05:46.252Z,99.31
2016-01-03T02:05:58.627Z,99.4
2016-01-03T02:06:11.018Z,99.31
2016-01-03T02:06:23.393Z,99.4
2016-01-03T02:06:35.754Z,99.4
2016-01-03T02:06:48.129Z,99.31
2016-01-03T02:07:00.551Z,99.12
2016-01-03T02:07:12.926Z,99.12
2016-01-03T02:07:25.317Z,98.93
2016-01-03T02:07:37.711Z,98.83
2016-01-03T02:07:50.086Z,99.02
2016-01-03T02:08:02.476Z,99.02
2016-01-03T02:08:14.867Z,99.4
2016-01-03T02:08:27.273Z,99.31
2016-01-03T02:08:38.917Z,99.21
2016-01-03T02:08:51.276Z,99.31
2016-01-03T02:09:03.620Z,99.02
2016-01-03T02:09:15.979Z,98.93
2016-01-03T02:09:28.354Z,98.93
2016-01-03T02:09:40.700Z,99.4
2016-01-03T02:09:53.044Z,99.12
2016-01-03T02:10:05.403Z,99.21
2016-01-03T02:10:17.747Z,99.21
2016-01-03T02:10:30.122Z,99.12
2016-01-03T02:10:42.469Z,99.12
2016-01-03T02:10:54.812Z,99.21
2016-01-03T02:11:07.156Z,99.21
2016-01-03T02:11:19.547Z,99.12
2016-01-03T02:11:31.922Z,99.31
2016-01-03T02:11:43.581Z,99.12
2016-01-03T02:11:55.940Z,99.12
2016-01-03T02:12:08.331Z,99.21
2016-01-03T02:12:20.722Z,99.31
2016-01-03T02:12:33.112Z,99.31
2016-01-03T02:12:45.521Z,99.12
2016-01-03T02:12:57.865Z,99.16
2016-01-03T02:13:10.225Z,98.93
2016-01-03T02:13:22.584Z,99.31
2016-01-03T02:13:34.943Z,99.12
2016-01-03T02:13:47.305Z,99.12
2016-01-03T02:13:59.664Z,98.83
2016-01-03T02:14:12.023Z,99.21
2016-01-03T02:14:24.383Z,99.02
2016-01-03T02:14:36.742Z,99.21
2016-01-03T02:14:49.120Z,99.12
2016-01-03T02:15:01.480Z,99.21
2016-01-03T02:15:13.823Z,99.4
2016-01-03T02:15:26.183Z,99.4
2016-01-03T02:15:38.542Z,99.59
2016-01-03T02:15:50.937Z,99.4
2016-01-03T02:16:03.296Z,99.31
2016-01-03T02:16:15.671Z,99.4
2016-01-03T02:16:28.046Z,99.02
2016-01-03T02:16:40.421Z,99.4
2016-01-03T02:16:52.814Z,99.59
2016-01-03T02:17:05.204Z,99.59
2016-01-03T02:17:17.595Z,99.4
2016-01-03T02:17:29.986Z,98.93
2016-01-03T02:17:42.376Z,99.5
2016-01-03T02:17:54.784Z,99.31
2016-01-03T02:18:07.159Z,99.26
2016-01-03T02:18:19.519Z,99.4
2016-01-03T02:18:31.894Z,99.31
2016-01-03T02:18:44.253Z,99.5
2016-01-03T02:18:56.616Z,99.59
2016-01-03T02:19:08.975Z,99.5
2016-01-03T02:19:20.616Z,99.31
2016-01-03T02:19:32.975Z,99.31
2016-01-03T02:19:45.350Z,99.5
2016-01-03T02:19:57.697Z,99.35
2016-01-03T02:20:10.072Z,99.4
2016-01-03T02:20:22.431Z,99.31
2016-01-03T02:20:34.775Z,99.4
2016-01-03T02:20:47.134Z,99.31
2016-01-03T02:20:59.511Z,99.31
2016-01-03T02:21:11.902Z,99.26
2016-01-03T02:21:24.277Z,99.21
2016-01-03T02:21:36.652Z,98.93
2016-01-03T02:21:49.042Z,99.07
2016-01-03T02:22:01.421Z,99.02
2016-01-03T02:22:13.812Z,98.88
2016-01-03T02:22:26.218Z,99.02
2016-01-03T02:22:38.625Z,99.02
2016-01-03T02:22:51.031Z,98.93
2016-01-03T02:23:03.424Z,99.4
2016-01-03T02:23:15.831Z,98.88
2016-01-03T02:23:27.471Z,98.93
2016-01-03T02:23:39.831Z,98.93
2016-01-03T02:23:52.206Z,98.93
2016-01-03T02:24:04.568Z,99.02
2016-01-03T02:24:16.927Z,98.93
2016-01-03T02:24:29.271Z,99.12
2016-01-03T02:24:41.490Z,99.5
2016-01-03T02:24:53.849Z,98.93
2016-01-03T02:25:06.226Z,99.21
2016-01-03T02:25:18.570Z,99.21
2016-01-03T02:25:30.929Z,99.31
2016-01-03T02:25:43.289Z,99.4
2016-01-03T02:25:55.664Z,99.4
2016-01-03T02:26:08.057Z,99.54
2016-01-03T02:26:20.417Z,99.4
2016-01-03T02:26:32.792Z,99.4
2016-01-03T02:26:45.151Z,99.31
2016-01-03T02:26:57.401Z,99.21
2016-01-03T02:27:09.653Z,99.59
2016-01-03T02:27:22.044Z,99.35
2016-01-03T02:27:34.434Z,99.5
2016-01-03T02:27:46.841Z,99.26
2016-01-03T02:27:59.231Z,99.12
2016-01-03T02:28:11.625Z,99.21
2016-01-03T02:28:24.000Z,99.12
2016-01-03T02:28:36.359Z,99.35
2016-01-03T02:28:48.719Z,99.4
2016-01-03T02:29:01.078Z,99.31
2016-01-03T02:29:13.456Z,99.59
2016-01-03T02:29:25.815Z,99.4
2016-01-03T02:29:38.175Z,99.21
2016-01-03T02:29:50.534Z,99.21
2016-01-03T02:30:02.909Z,99.31
2016-01-03T02:30:15.286Z,99.21
2016-01-03T02:30:27.661Z,99.16
2016-01-03T02:30:40.021Z,99.21
2016-01-03T02:30:52.380Z,99.21
2016-01-03T02:31:04.724Z,99.21
2016-01-03T02:31:17.118Z,99.16
2016-01-03T02:31:29.478Z,99.5
2016-01-03T02:31:41.853Z,99.35
2016-01-03T02:31:54.228Z,99.4
2016-01-03T02:32:06.603Z,99.21
2016-01-03T02:32:18.995Z,99.68
2016-01-03T02:32:30.667Z,99.5
2016-01-03T02:32:43.042Z,99.68
2016-01-03T02:32:55.386Z,99.59
2016-01-03T02:33:07.745Z,99.4
2016-01-03T02:33:20.108Z,99.5
2016-01-03T02:33:32.467Z,99.73
2016-01-03T02:33:44.826Z,99.4
2016-01-03T02:33:57.170Z,99.4
2016-01-03T02:34:09.545Z,99.4
2016-01-03T02:34:21.907Z,99.4
2016-01-03T02:34:34.266Z,99.21
2016-01-03T02:34:46.625Z,99.31
2016-01-03T02:34:59.000Z,99.21
2016-01-03T02:35:11.344Z,99.02
2016-01-03T02:35:23.723Z,99.21
2016-01-03T02:35:36.098Z,99.02
2016-01-03T02:35:48.473Z,99.26
2016-01-03T02:36:00.832Z,99.02
2016-01-03T02:36:13.207Z,99.02
2016-01-03T02:36:25.584Z,99.12
2016-01-03T02:36:37.975Z,99.26
2016-01-03T02:36:50.366Z,99.12
2016-01-03T02:37:02.756Z,99.21
2016-01-03T02:37:14.444Z,99.31
2016-01-03T02:37:26.681Z,98.97
2016-01-03T02:37:39.087Z,99.02
2016-01-03T02:37:51.478Z,99.21
2016-01-03T02:38:03.837Z,99.02
2016-01-03T02:38:16.181Z,99.21
2016-01-03T02:38:28.558Z,99.21
2016-01-03T02:38:40.918Z,99.21
2016-01-03T02:38:53.277Z,98.97
2016-01-03T02:39:05.636Z,99.12
2016-01-03T02:39:18.011Z,99.12
2016-01-03T02:39:30.375Z,99.02
2016-01-03T02:39:42.750Z,99.12
2016-01-03T02:39:55.109Z,99.59
2016-01-03T02:40:07.453Z,99.54
2016-01-03T02:40:19.812Z,99.4
2016-01-03T02:40:32.174Z,99.31
2016-01-03T02:40:44.533Z,99.31